createdAt,value
2023-03-17T00:01:19.015Z,100068.69
2023-03-17T00:03:50.529Z,100072.53
2023-03-17T00:06:29.938Z,100066.69
2023-03-17T00:08:57.744Z,100064.97
2023-03-17T00:11:27.103Z,100069.72
2023-03-17T00:13:54.466Z,100074.47
2023-03-17T00:16:27.326Z,100078.00
2023-03-17T00:18:55.820Z,100084.63
2023-03-17T00:21:32.030Z,100075.75
2023-03-17T00:24:00.238Z,100086.94
2023-03-17T00:26:28.614Z,100085.44
2023-03-17T00:28:55.831Z,100080.00
2023-03-17T00:31:25.645Z,100086.97
2023-03-17T00:33:54.908Z,100095.53
2023-03-17T00:36:28.243Z,100068.22
2023-03-17T00:38:55.886Z,100088.84
2023-03-17T00:41:27.276Z,100088.72
2023-03-17T00:43:54.590Z,100085.31
2023-03-17T00:46:28.785Z,100074.06
2023-03-17T00:48:58.011Z,100088.16
2023-03-17T00:51:25.121Z,100088.00
2023-03-17T00:53:52.855Z,100078.97
2023-03-17T00:56:21.659Z,100088.34
2023-03-17T00:58:49.395Z,100080.53
2023-03-17T01:01:18.635Z,100083.53
2023-03-17T01:03:47.720Z,100103.22
2023-03-17T01:06:16.713Z,100096.56
2023-03-17T01:08:44.953Z,100095.41
2023-03-17T01:11:18.970Z,100114.47
2023-03-17T01:13:48.046Z,100107.81
2023-03-17T01:16:15.891Z,100126.16
2023-03-17T01:18:43.735Z,100133.63
2023-03-17T01:21:11.035Z,100131.97
2023-03-17T01:23:39.015Z,100145.91
2023-03-17T01:26:06.743Z,100135.31
2023-03-17T01:28:34.332Z,100132.72
2023-03-17T01:31:02.933Z,100141.69
2023-03-17T01:33:30.070Z,100139.28
2023-03-17T01:35:57.668Z,100149.69
2023-03-17T01:38:24.996Z,100159.28
2023-03-17T01:40:52.371Z,100147.81
2023-03-17T01:43:28.240Z,100173.84
2023-03-17T01:46:30.645Z,100158.75
2023-03-17T01:49:09.539Z,100184.09
2023-03-17T01:51:45.375Z,100179.69
2023-03-17T01:54:17.417Z,100176.66
2023-03-17T01:56:47.362Z,100177.00
2023-03-17T01:59:20.179Z,100180.38
2023-03-17T02:01:50.468Z,100180.50
2023-03-17T02:04:19.734Z,100177.56
2023-03-17T02:06:57.902Z,100175.44
2023-03-17T02:09:26.803Z,100160.19
2023-03-17T02:11:54.630Z,100175.25
2023-03-17T02:14:21.812Z,100166.50
2023-03-17T02:16:49.520Z,100183.56
2023-03-17T02:19:16.994Z,100182.31
2023-03-17T02:21:50.292Z,100176.03
2023-03-17T02:24:23.675Z,100198.13
2023-03-17T02:26:54.132Z,100187.09
2023-03-17T02:29:24.327Z,100185.50
2023-03-17T02:31:51.522Z,100167.34
2023-03-17T02:34:18.704Z,100199.03
2023-03-17T02:36:46.470Z,100218.44
2023-03-17T02:39:15.812Z,100224.16
2023-03-17T02:41:43.034Z,100227.03
2023-03-17T02:44:11.060Z,100241.41
2023-03-17T02:46:38.164Z,100221.38
2023-03-17T02:49:06.192Z,100236.72
2023-03-17T02:51:33.364Z,100224.66
2023-03-17T02:54:00.516Z,100237.31
2023-03-17T02:56:28.238Z,100251.97
2023-03-17T02:58:55.884Z,100258.00
2023-03-17T03:01:23.404Z,100257.81
2023-03-17T03:03:50.833Z,100257.00
2023-03-17T03:06:17.923Z,100263.97
2023-03-17T03:08:45.039Z,100267.16
2023-03-17T03:11:12.260Z,100278.66
2023-03-17T03:13:39.389Z,100271.81
2023-03-17T03:16:06.926Z,100283.31
2023-03-17T03:18:34.067Z,100286.00
2023-03-17T03:21:01.626Z,100295.41
2023-03-17T03:23:28.821Z,100304.09
2023-03-17T03:25:55.927Z,100309.47
2023-03-17T03:28:23.222Z,100316.69
2023-03-17T03:30:50.619Z,100297.81
2023-03-17T03:33:17.937Z,100310.75
2023-03-17T03:35:48.036Z,100306.72
2023-03-17T03:38:15.618Z,100327.06
2023-03-17T03:40:42.701Z,100327.25
2023-03-17T03:43:21.898Z,100327.59
2023-03-17T03:45:50.564Z,100327.81
2023-03-17T03:48:18.908Z,100323.25
2023-03-17T03:50:46.103Z,100335.25
2023-03-17T03:53:14.475Z,100333.44
2023-03-17T03:55:41.879Z,100330.56
2023-03-17T03:58:09.028Z,100339.03
2023-03-17T04:00:37.311Z,100328.31
2023-03-17T04:03:04.708Z,100346.31
2023-03-17T04:05:31.892Z,100344.00
2023-03-17T04:07:59.249Z,100333.28
2023-03-17T04:10:26.599Z,100356.34
2023-03-17T04:12:53.782Z,100360.97
2023-03-17T04:15:21.230Z,100372.34
2023-03-17T04:17:48.416Z,100372.41
2023-03-17T04:20:17.114Z,100376.97
2023-03-17T04:22:45.187Z,100377.88
2023-03-17T04:25:14.569Z,100371.03
2023-03-17T04:27:42.861Z,100380.03
2023-03-17T04:30:13.904Z,100390.91
2023-03-17T04:32:42.022Z,100386.72
2023-03-17T04:35:22.488Z,100378.25
2023-03-17T04:37:50.555Z,100397.41
2023-03-17T04:40:18.990Z,100413.28
2023-03-17T04:42:46.526Z,100428.09
2023-03-17T04:45:17.768Z,100425.84
2023-03-17T04:47:46.503Z,100427.34
2023-03-17T04:50:14.755Z,100444.81
2023-03-17T04:52:42.293Z,100438.69
2023-03-17T04:55:10.045Z,100450.88
2023-03-17T04:57:37.666Z,100452.25
2023-03-17T05:00:06.402Z,100452.09
2023-03-17T05:02:33.812Z,100452.25
2023-03-17T05:05:01.279Z,100445.75
2023-03-17T05:07:32.829Z,100448.78
2023-03-17T05:10:02.238Z,100457.63
2023-03-17T05:12:30.535Z,100454.09
2023-03-17T05:14:57.756Z,100459.47
2023-03-17T05:17:24.878Z,100482.38
2023-03-17T05:19:51.941Z,100477.88
2023-03-17T05:22:19.084Z,100483.75
2023-03-17T05:24:47.676Z,100491.97
2023-03-17T05:27:15.876Z,100490.50
2023-03-17T05:29:43.140Z,100495.34
2023-03-17T05:32:10.495Z,100495.59
2023-03-17T05:34:37.659Z,100500.44
2023-03-17T05:37:04.778Z,100499.66
2023-03-17T05:39:32.954Z,100522.81
2023-03-17T05:42:00.700Z,100514.31
2023-03-17T05:44:27.786Z,100518.22
2023-03-17T05:46:55.984Z,100522.19
2023-03-17T05:49:24.612Z,100528.66
2023-03-17T05:51:51.793Z,100524.56
2023-03-17T05:54:19.095Z,100530.00
2023-03-17T05:56:46.232Z,100516.31
2023-03-17T05:59:15.736Z,100522.59
2023-03-17T06:01:42.989Z,100531.47
2023-03-17T06:04:11.157Z,100532.38
2023-03-17T06:06:39.043Z,100536.28
2023-03-17T06:09:06.290Z,100525.78
2023-03-17T06:11:33.370Z,100544.00
2023-03-17T06:14:00.652Z,100557.91
2023-03-17T06:16:30.609Z,100543.28
2023-03-17T06:18:57.748Z,100546.66
2023-03-17T06:21:25.741Z,100547.59
2023-03-17T06:23:52.892Z,100546.09
2023-03-17T06:26:20.142Z,100557.06
2023-03-17T06:28:47.255Z,100536.03
2023-03-17T06:31:14.401Z,100548.09
2023-03-17T06:33:41.781Z,100553.00
2023-03-17T06:36:09.030Z,100546.13
2023-03-17T06:38:36.271Z,100549.00
2023-03-17T06:41:03.543Z,100537.66
2023-03-17T06:43:32.083Z,100559.56
2023-03-17T06:45:59.215Z,100556.88
2023-03-17T06:48:26.413Z,100549.28
2023-03-17T06:50:53.536Z,100572.53
2023-03-17T06:53:20.932Z,100587.84
2023-03-17T06:55:48.455Z,100582.25
2023-03-17T06:58:16.092Z,100588.94
2023-03-17T07:00:45.564Z,100571.00
2023-03-17T07:03:12.862Z,100586.78
2023-03-17T07:05:40.356Z,100584.31
2023-03-17T07:08:08.347Z,100587.13
2023-03-17T07:10:36.852Z,100592.56
2023-03-17T07:13:06.226Z,100579.25
2023-03-17T07:15:35.170Z,100603.69
2023-03-17T07:18:02.933Z,100603.38
2023-03-17T07:20:30.766Z,100602.22
2023-03-17T07:22:58.494Z,100615.81
2023-03-17T07:25:25.763Z,100607.88
2023-03-17T07:27:53.001Z,100610.56
2023-03-17T07:30:20.694Z,100611.69
2023-03-17T07:32:48.402Z,100606.91
2023-03-17T07:35:17.600Z,100612.50
2023-03-17T07:37:47.533Z,100622.38
2023-03-17T07:40:14.908Z,100602.13
2023-03-17T07:42:42.372Z,100619.47
2023-03-17T07:45:10.119Z,100616.84
2023-03-17T07:47:37.594Z,100607.22
2023-03-17T07:50:06.046Z,100620.94
2023-03-17T07:52:34.425Z,100622.28
2023-03-17T07:55:01.568Z,100620.84
2023-03-17T07:57:30.169Z,100628.38
2023-03-17T07:59:57.892Z,100626.63
2023-03-17T08:02:25.249Z,100626.81
2023-03-17T08:04:54.022Z,100640.28
2023-03-17T08:07:21.149Z,100639.03
2023-03-17T08:09:48.348Z,100653.16
2023-03-17T08:12:16.019Z,100657.03
2023-03-17T08:14:43.174Z,100666.22
2023-03-17T08:17:10.643Z,100666.72
2023-03-17T08:19:37.928Z,100661.38
2023-03-17T08:22:05.237Z,100668.72
2023-03-17T08:24:32.722Z,100671.78
2023-03-17T08:27:00.925Z,100673.84
2023-03-17T08:29:29.292Z,100678.09
2023-03-17T08:31:57.450Z,100695.06
2023-03-17T08:34:26.350Z,100692.25
2023-03-17T08:36:53.520Z,100697.56
2023-03-17T08:39:20.830Z,100695.50
2023-03-17T08:41:48.043Z,100712.84
2023-03-17T08:44:15.269Z,100703.88
2023-03-17T08:46:42.552Z,100708.91
2023-03-17T08:49:10.967Z,100704.66
2023-03-17T08:51:39.389Z,100712.09
2023-03-17T08:54:10.159Z,100709.97
2023-03-17T08:56:38.211Z,100691.66
2023-03-17T08:59:09.629Z,100704.19
2023-03-17T09:01:37.716Z,100685.34
2023-03-17T09:04:04.950Z,100713.78
2023-03-17T09:06:32.262Z,100713.84
2023-03-17T09:09:00.539Z,100725.97
2023-03-17T09:11:30.077Z,100718.00
2023-03-17T09:13:57.332Z,100731.56
2023-03-17T09:16:25.809Z,100731.97
2023-03-17T09:18:53.416Z,100724.72
2023-03-17T09:21:21.374Z,100742.34
2023-03-17T09:23:48.655Z,100727.47
2023-03-17T09:26:15.818Z,100734.00
2023-03-17T09:28:43.646Z,100747.13
2023-03-17T09:31:12.513Z,100735.38
2023-03-17T09:33:40.850Z,100751.78
2023-03-17T09:36:09.545Z,100748.03
2023-03-17T09:38:37.367Z,100739.63
2023-03-17T09:41:23.588Z,100743.00
2023-03-17T09:44:10.070Z,100741.72
2023-03-17T09:46:55.663Z,100750.88
2023-03-17T09:49:30.032Z,100754.47
2023-03-17T09:51:57.177Z,100742.13
2023-03-17T09:54:34.597Z,100765.97
2023-03-17T09:57:14.403Z,100736.00
2023-03-17T09:59:45.063Z,100737.47
2023-03-17T10:02:28.805Z,100760.31
2023-03-17T10:04:57.554Z,100767.69
2023-03-17T10:07:36.269Z,100752.81
2023-03-17T10:10:12.229Z,100770.00
2023-03-17T10:13:08.561Z,100770.81
2023-03-17T10:16:00.122Z,100752.94
2023-03-17T10:18:33.114Z,100783.06
2023-03-17T10:21:04.824Z,100774.28
2023-03-17T10:23:34.204Z,100776.06
2023-03-17T10:26:17.519Z,100777.28
2023-03-17T10:28:44.580Z,100777.03
2023-03-17T10:31:19.130Z,100782.97
2023-03-17T10:33:52.544Z,100773.88
2023-03-17T10:36:38.125Z,100789.44
2023-03-17T10:39:08.157Z,100791.88
2023-03-17T10:41:39.090Z,100791.97
2023-03-17T10:44:09.759Z,100786.53
2023-03-17T10:46:38.858Z,100785.91
2023-03-17T10:49:16.705Z,100787.16
2023-03-17T10:51:46.959Z,100791.13
2023-03-17T10:54:18.651Z,100808.81
2023-03-17T10:56:57.777Z,100817.03
2023-03-17T10:59:28.679Z,100808.69
2023-03-17T11:02:00.865Z,100814.22
2023-03-17T11:04:42.679Z,100809.19
2023-03-17T11:07:20.381Z,100806.69
2023-03-17T11:09:52.639Z,100802.34
2023-03-17T11:12:26.529Z,100806.56
2023-03-17T11:15:03.865Z,100810.19
2023-03-17T11:17:41.449Z,100803.94
2023-03-17T11:20:27.726Z,100824.72
2023-03-17T11:23:15.381Z,100813.97
2023-03-17T11:25:46.164Z,100821.41
2023-03-17T11:28:20.966Z,100823.91
2023-03-17T11:30:52.792Z,100823.16
2023-03-17T11:33:55.121Z,100831.84
2023-03-17T11:36:28.314Z,100822.94
2023-03-17T11:39:31.424Z,100821.50
2023-03-17T11:41:58.726Z,100826.72
2023-03-17T11:44:55.324Z,100814.34
2023-03-17T11:47:43.592Z,100823.59
2023-03-17T11:50:30.270Z,100824.09
2023-03-17T11:53:20.881Z,100827.78
2023-03-17T11:56:02.873Z,100824.63
2023-03-17T11:58:35.671Z,100830.41
2023-03-17T12:01:10.044Z,100829.97
2023-03-17T12:03:42.640Z,100828.00
2023-03-17T12:06:35.108Z,100835.19
2023-03-17T12:09:30.867Z,100832.41
2023-03-17T12:11:59.724Z,100831.75
2023-03-17T12:14:46.595Z,100839.06
2023-03-17T12:17:51.567Z,100840.25
2023-03-17T12:20:26.360Z,100847.22
2023-03-17T12:23:31.904Z,100837.63
2023-03-17T12:26:13.076Z,100846.00
2023-03-17T12:28:50.043Z,100852.50
2023-03-17T12:31:31.704Z,100839.72
2023-03-17T12:34:08.918Z,100846.00
2023-03-17T12:36:39.633Z,100851.97
2023-03-17T12:39:12.675Z,100852.91
2023-03-17T12:41:49.174Z,100858.53
2023-03-17T12:44:39.550Z,100849.88
2023-03-17T12:47:24.252Z,100854.47
2023-03-17T12:50:27.612Z,100859.63
2023-03-17T12:53:22.362Z,100858.44
2023-03-17T12:55:51.833Z,100877.69
2023-03-17T12:58:44.090Z,100880.94
2023-03-17T13:01:33.904Z,100880.28
2023-03-17T13:04:26.502Z,100884.66
2023-03-17T13:07:12.572Z,100878.41
2023-03-17T13:09:54.965Z,100878.47
2023-03-17T13:12:40.057Z,100878.28
2023-03-17T13:15:37.310Z,100881.19
2023-03-17T13:18:16.305Z,100882.44
2023-03-17T13:20:52.303Z,100885.69
2023-03-17T13:23:22.104Z,100878.09
2023-03-17T13:25:53.895Z,100892.69
2023-03-17T13:28:47.660Z,100874.31
2023-03-17T13:31:36.870Z,100897.69
2023-03-17T13:34:19.635Z,100897.91
2023-03-17T13:36:52.101Z,100893.94
2023-03-17T13:39:25.199Z,100895.00
2023-03-17T13:42:19.039Z,100901.06
2023-03-17T13:45:10.814Z,100898.16
2023-03-17T13:47:42.452Z,100892.69
2023-03-17T13:50:10.200Z,100901.78
2023-03-17T13:52:50.502Z,100907.44
2023-03-17T13:55:17.575Z,100912.78
2023-03-17T13:58:15.799Z,100914.69
2023-03-17T14:00:49.499Z,100909.25
2023-03-17T14:03:27.549Z,100922.56
2023-03-17T14:05:55.923Z,100902.97
2023-03-17T14:08:37.562Z,100914.66
2023-03-17T14:11:15.999Z,100930.69
2023-03-17T14:14:15.195Z,100924.31
2023-03-17T14:16:55.434Z,100938.75
2023-03-17T14:19:28.284Z,100936.88
2023-03-17T14:22:04.517Z,100941.72
2023-03-17T14:24:33.988Z,100935.06
2023-03-17T14:27:10.515Z,100941.34
2023-03-17T14:29:38.200Z,100938.94
2023-03-17T14:32:06.858Z,100955.91
2023-03-17T14:34:34.248Z,100952.38
2023-03-17T14:37:04.642Z,100955.81
2023-03-17T14:39:32.259Z,100967.16
2023-03-17T14:42:08.524Z,100973.25
2023-03-17T14:44:45.554Z,100973.69
2023-03-17T14:47:25.790Z,100971.66
2023-03-17T14:49:54.475Z,100980.50
2023-03-17T14:52:27.442Z,100972.13
2023-03-17T14:54:58.415Z,100983.28
2023-03-17T14:57:32.889Z,100994.41
2023-03-17T15:00:16.363Z,100996.47
2023-03-17T15:02:57.853Z,100996.03
2023-03-17T15:05:30.918Z,100988.91
2023-03-17T15:07:58.193Z,101004.53
2023-03-17T15:10:34.448Z,101009.13
2023-03-17T15:13:04.668Z,100990.50
2023-03-17T15:15:34.433Z,100996.78
2023-03-17T15:18:10.434Z,100991.06
2023-03-17T15:20:37.630Z,101014.03
2023-03-17T15:23:19.414Z,101012.94
2023-03-17T15:25:58.127Z,101018.69
2023-03-17T15:28:28.666Z,101023.56
2023-03-17T15:31:11.455Z,101026.19
2023-03-17T15:33:41.333Z,101032.06
2023-03-17T15:36:29.211Z,101035.72
2023-03-17T15:38:56.625Z,101024.31
2023-03-17T15:41:23.769Z,101038.81
2023-03-17T15:43:53.307Z,101033.13
2023-03-17T15:46:31.102Z,101028.25
2023-03-17T15:48:58.744Z,101045.22
2023-03-17T15:51:26.577Z,101059.59
2023-03-17T15:53:53.798Z,101050.47
2023-03-17T15:56:22.229Z,101038.13
2023-03-17T15:58:52.488Z,101057.16
2023-03-17T16:01:20.844Z,101069.47
2023-03-17T16:03:49.014Z,101062.75
2023-03-17T16:06:18.981Z,101076.72
2023-03-17T16:08:46.523Z,101083.53
2023-03-17T16:11:19.610Z,101091.91
2023-03-17T16:13:47.647Z,101087.13
2023-03-17T16:16:30.229Z,101092.72
2023-03-17T16:18:58.472Z,101067.63
2023-03-17T16:21:26.057Z,101100.97
2023-03-17T16:23:54.149Z,101096.56
2023-03-17T16:26:21.343Z,101090.78
2023-03-17T16:28:49.658Z,101118.50
2023-03-17T16:31:24.785Z,101137.19
2023-03-17T16:33:54.791Z,101116.91
2023-03-17T16:36:23.926Z,101138.97
2023-03-17T16:38:52.189Z,101129.53
2023-03-17T16:41:25.079Z,101149.91
2023-03-17T16:44:02.869Z,101149.06
2023-03-17T16:46:35.173Z,101152.84
2023-03-17T16:49:04.294Z,101156.16
2023-03-17T16:51:36.146Z,101157.38
2023-03-17T16:54:03.482Z,101147.66
2023-03-17T16:56:31.951Z,101161.94
2023-03-17T16:58:59.923Z,101168.81
2023-03-17T17:01:28.976Z,101163.78
2023-03-17T17:03:56.708Z,101178.41
2023-03-17T17:06:24.600Z,101144.22
2023-03-17T17:08:52.358Z,101153.84
2023-03-17T17:11:20.522Z,101186.66
2023-03-17T17:13:48.930Z,101168.88
2023-03-17T17:16:44.942Z,101161.63
2023-03-17T17:19:17.759Z,101124.84
2023-03-17T17:21:49.805Z,101110.94
2023-03-17T17:24:25.074Z,101131.41
2023-03-17T17:26:55.396Z,101185.94
2023-03-17T17:29:22.467Z,101189.78
2023-03-17T17:31:49.705Z,101195.94
2023-03-17T17:34:18.201Z,101199.00
2023-03-17T17:36:45.837Z,101199.19
2023-03-17T17:39:13.983Z,101198.38
2023-03-17T17:41:41.108Z,101203.19
2023-03-17T17:44:08.207Z,101204.03
2023-03-17T17:46:38.491Z,101208.75
2023-03-17T17:49:06.029Z,101197.91
2023-03-17T17:51:34.653Z,101225.06
2023-03-17T17:54:01.981Z,101221.09
2023-03-17T17:56:29.237Z,101228.81
2023-03-17T17:58:56.458Z,101225.69
2023-03-17T18:01:23.604Z,101218.34
2023-03-17T18:03:51.075Z,101238.75
2023-03-17T18:06:18.367Z,101240.44
2023-03-17T18:08:46.216Z,101241.78
2023-03-17T18:11:13.640Z,101249.31
2023-03-17T18:13:41.838Z,101247.75
2023-03-17T18:16:12.645Z,101225.88
2023-03-17T18:18:42.455Z,101258.59
2023-03-17T18:21:10.277Z,101250.38
2023-03-17T18:23:38.566Z,101266.88
2023-03-17T18:26:06.380Z,101271.09
2023-03-17T18:28:36.819Z,101274.91
2023-03-17T18:31:11.208Z,101260.34
2023-03-17T18:33:40.675Z,101274.13
2023-03-17T18:36:09.119Z,101276.94
2023-03-17T18:38:36.600Z,101263.47
2023-03-17T18:41:04.524Z,101285.53
2023-03-17T18:43:31.703Z,101289.91
2023-03-17T18:45:59.105Z,101301.47
2023-03-17T18:48:30.211Z,101272.63
2023-03-17T18:50:57.438Z,101278.69
2023-03-17T18:53:24.997Z,101306.75
2023-03-17T18:55:52.145Z,101304.53
2023-03-17T18:58:19.314Z,101297.41
2023-03-17T19:00:47.436Z,101289.53
2023-03-17T19:03:14.797Z,101303.25
2023-03-17T19:05:42.344Z,101319.25
2023-03-17T19:08:09.564Z,101314.19
2023-03-17T19:10:38.855Z,101325.50
2023-03-17T19:13:06.627Z,101325.00
2023-03-17T19:15:35.483Z,101315.03
2023-03-17T19:18:02.609Z,101327.91
2023-03-17T19:20:30.103Z,101327.59
2023-03-17T19:22:58.509Z,101319.03
2023-03-17T19:25:25.876Z,101330.84
2023-03-17T19:27:53.015Z,101328.53
2023-03-17T19:30:20.325Z,101332.38
2023-03-17T19:32:47.498Z,101330.50
2023-03-17T19:35:14.639Z,101325.84
2023-03-17T19:37:41.833Z,101325.28
2023-03-17T19:40:10.403Z,101335.72
2023-03-17T19:42:37.458Z,101330.75
2023-03-17T19:45:05.305Z,101350.88
2023-03-17T19:47:32.467Z,101340.47
2023-03-17T19:49:59.562Z,101340.31
2023-03-17T19:52:26.758Z,101350.72
2023-03-17T19:54:53.951Z,101346.56
2023-03-17T19:57:21.273Z,101344.47
2023-03-17T19:59:48.454Z,101353.41
2023-03-17T20:02:16.828Z,101320.16
2023-03-17T20:04:44.165Z,101346.91
2023-03-17T20:07:11.442Z,101328.41
2023-03-17T20:09:39.410Z,101351.78
2023-03-17T20:12:06.726Z,101358.69
2023-03-17T20:14:34.194Z,101350.22
2023-03-17T20:17:01.381Z,101357.34
2023-03-17T20:19:29.294Z,101360.44
2023-03-17T20:21:58.641Z,101362.59
2023-03-17T20:24:27.193Z,101348.88
2023-03-17T20:26:57.005Z,101364.91
2023-03-17T20:29:24.423Z,101366.63
2023-03-17T20:31:51.781Z,101377.84
2023-03-17T20:34:18.925Z,101373.56
2023-03-17T20:36:46.172Z,101374.56
2023-03-17T20:39:19.726Z,101367.66
2023-03-17T20:41:51.664Z,101377.22
2023-03-17T20:44:19.697Z,101374.41
2023-03-17T20:46:47.818Z,101379.50
2023-03-17T20:49:15.935Z,101380.00
2023-03-17T20:51:43.826Z,101379.28
2023-03-17T20:54:14.046Z,101377.69
2023-03-17T20:56:41.297Z,101377.13
2023-03-17T20:59:09.770Z,101376.56
2023-03-17T21:01:38.877Z,101398.72
2023-03-17T21:04:09.125Z,101385.09
2023-03-17T21:06:37.574Z,101375.06
2023-03-17T21:09:05.213Z,101389.72
2023-03-17T21:11:32.398Z,101394.28
2023-03-17T21:13:59.700Z,101392.97
2023-03-17T21:16:29.899Z,101396.91
2023-03-17T21:18:57.258Z,101389.09
2023-03-17T21:21:25.170Z,101397.88
2023-03-17T21:23:52.298Z,101384.16
2023-03-17T21:26:19.668Z,101415.38
2023-03-17T21:28:47.684Z,101392.50
2023-03-17T21:31:17.340Z,101410.31
2023-03-17T21:33:45.407Z,101397.16
2023-03-17T21:36:12.605Z,101389.63
2023-03-17T21:38:39.789Z,101423.78
2023-03-17T21:41:30.996Z,101419.28
2023-03-17T21:43:58.186Z,101416.75
2023-03-17T21:46:25.922Z,101420.19
2023-03-17T21:48:54.196Z,101421.31
2023-03-17T21:51:21.611Z,101424.69
2023-03-17T21:53:49.082Z,101410.91
2023-03-17T21:56:17.156Z,101432.19
2023-03-17T21:58:44.346Z,101428.50
2023-03-17T22:01:12.282Z,101416.38
2023-03-17T22:03:40.175Z,101444.84
2023-03-17T22:06:07.742Z,101445.34
2023-03-17T22:08:35.497Z,101438.75
2023-03-17T22:11:10.662Z,101449.88
2023-03-17T22:13:38.151Z,101449.03
2023-03-17T22:16:06.256Z,101453.56
2023-03-17T22:18:33.761Z,101450.06
2023-03-17T22:21:01.890Z,101454.88
2023-03-17T22:23:29.228Z,101457.56
2023-03-17T22:25:57.323Z,101447.94
2023-03-17T22:28:24.995Z,101459.00
2023-03-17T22:30:52.128Z,101466.13
2023-03-17T22:33:19.322Z,101468.28
2023-03-17T22:35:47.160Z,101459.69
2023-03-17T22:38:14.380Z,101450.63
2023-03-17T22:40:41.543Z,101467.81
2023-03-17T22:43:08.796Z,101481.66
2023-03-17T22:45:36.098Z,101475.03
2023-03-17T22:48:03.300Z,101466.13
2023-03-17T22:50:30.755Z,101484.16
2023-03-17T22:52:58.057Z,101486.91
2023-03-17T22:55:25.263Z,101485.59
2023-03-17T22:57:52.363Z,101486.72
2023-03-17T23:00:19.701Z,101495.63
2023-03-17T23:02:46.867Z,101494.59
2023-03-17T23:05:14.732Z,101487.63
2023-03-17T23:07:50.390Z,101500.41
2023-03-17T23:10:23.161Z,101492.63
2023-03-17T23:12:51.113Z,101504.34
2023-03-17T23:15:19.855Z,101507.50
2023-03-17T23:17:47.584Z,101510.38
2023-03-17T23:20:15.688Z,101514.56
2023-03-17T23:22:43.239Z,101506.75
2023-03-17T23:25:10.864Z,101515.22
2023-03-17T23:27:37.994Z,101512.31
2023-03-17T23:30:05.985Z,101516.34
2023-03-17T23:32:34.348Z,101514.97
2023-03-17T23:35:01.878Z,101518.72
2023-03-17T23:37:30.985Z,101507.81
2023-03-17T23:39:58.094Z,101522.09
2023-03-17T23:42:25.294Z,101523.50
2023-03-17T23:44:52.726Z,101517.25
2023-03-17T23:47:20.703Z,101536.28
2023-03-17T23:49:47.770Z,101537.09
2023-03-17T23:52:15.548Z,101510.16
2023-03-17T23:54:42.695Z,101526.69
2023-03-17T23:57:09.825Z,101503.13
2023-03-17T23:59:37.170Z,101544.09
